createdAt,value
2018-02-03T00:02:11.975Z,2.87
2018-02-03T00:04:40.938Z,2.88
2018-02-03T00:07:06.854Z,2.93
2018-02-03T00:09:32.754Z,3.04
2018-02-03T00:11:58.680Z,3.05
2018-02-03T00:14:24.574Z,3.07
2018-02-03T00:16:54.910Z,2.94
2018-02-03T00:19:20.838Z,2.96
2018-02-03T00:21:48.042Z,2.98
2018-02-03T00:24:16.768Z,2.91
2018-02-03T00:26:42.764Z,2.89
2018-02-03T00:29:08.658Z,2.93
2018-02-03T00:31:38.449Z,2.90
2018-02-03T00:34:04.437Z,2.85
2018-02-03T00:36:32.244Z,2.91
2018-02-03T00:38:58.171Z,2.95
2018-02-03T00:41:27.525Z,2.96
2018-02-03T00:43:53.415Z,3.01
2018-02-03T00:46:19.365Z,3.02
2018-02-03T00:48:45.262Z,2.96
2018-02-03T00:51:11.168Z,2.96
2018-02-03T00:53:37.987Z,3.03
2018-02-03T00:56:03.904Z,3.02
2018-02-03T00:58:33.362Z,3.02
2018-02-03T01:00:59.328Z,3.01
2018-02-03T01:03:28.659Z,3.01
2018-02-03T01:05:54.555Z,2.95
2018-02-03T01:08:22.403Z,2.85
2018-02-03T01:10:48.308Z,2.78
2018-02-03T01:13:17.749Z,2.74
2018-02-03T01:15:43.657Z,2.75
2018-02-03T01:18:11.542Z,2.70
2018-02-03T01:20:37.446Z,2.73
2018-02-03T01:23:03.348Z,2.76
2018-02-03T01:25:29.266Z,2.77
2018-02-03T01:27:55.162Z,2.72
2018-02-03T01:30:24.883Z,2.80
2018-02-03T01:32:50.830Z,2.81
2018-02-03T01:35:18.095Z,2.82
2018-02-03T01:37:44.106Z,2.80
2018-02-03T01:40:13.066Z,2.74
2018-02-03T01:42:38.990Z,2.80
2018-02-03T01:45:08.626Z,2.87
2018-02-03T01:47:47.209Z,2.95
2018-02-03T01:50:13.162Z,3.00
2018-02-03T01:52:39.061Z,3.00
2018-02-03T01:55:05.000Z,2.95
2018-02-03T01:57:30.898Z,2.89
2018-02-03T01:59:56.798Z,2.79
2018-02-03T02:02:22.713Z,2.66
2018-02-03T02:04:48.646Z,2.63
2018-02-03T02:07:14.599Z,2.57
2018-02-03T02:09:40.498Z,2.57
2018-02-03T02:12:06.426Z,2.57
2018-02-03T02:14:32.323Z,2.50
2018-02-03T02:16:58.206Z,2.47
2018-02-03T02:19:24.118Z,2.48
2018-02-03T02:21:53.394Z,2.49
2018-02-03T02:24:19.384Z,2.51
2018-02-03T02:26:48.373Z,2.50
2018-02-03T02:29:14.276Z,2.46
2018-02-03T02:31:46.732Z,2.52
2018-02-03T02:34:12.665Z,2.46
2018-02-03T02:36:38.601Z,2.49
2018-02-03T02:39:04.506Z,2.54
2018-02-03T02:41:30.446Z,2.56
2018-02-03T02:43:56.366Z,2.61
2018-02-03T02:46:22.258Z,2.50
2018-02-03T02:48:48.583Z,2.52
2018-02-03T02:51:14.514Z,2.59
2018-02-03T02:53:43.079Z,2.64
2018-02-03T02:56:08.991Z,2.74
2018-02-03T02:58:38.372Z,2.76
2018-02-03T03:01:04.315Z,2.75
2018-02-03T03:03:33.735Z,2.77
2018-02-03T03:05:59.642Z,2.70
2018-02-03T03:08:28.788Z,2.65
2018-02-03T03:10:54.688Z,2.57
2018-02-03T03:13:20.622Z,2.61
2018-02-03T03:15:46.517Z,2.61
2018-02-03T03:18:12.411Z,2.64
2018-02-03T03:20:39.282Z,2.61
2018-02-03T03:23:05.197Z,2.60
2018-02-03T03:25:34.627Z,2.59
2018-02-03T03:28:00.556Z,2.63
2018-02-03T03:30:29.499Z,2.73
2018-02-03T03:32:55.410Z,2.78
2018-02-03T03:35:24.344Z,2.78
2018-02-03T03:37:50.310Z,2.86
2018-02-03T03:40:18.234Z,2.89
2018-02-03T03:42:44.166Z,2.92
2018-02-03T03:45:13.891Z,2.90
2018-02-03T03:47:39.797Z,2.86
2018-02-03T03:50:05.696Z,2.88
2018-02-03T03:52:31.606Z,2.95
2018-02-03T03:54:57.522Z,2.96
2018-02-03T03:57:25.084Z,2.98
2018-02-03T03:59:51.034Z,3.02
2018-02-03T04:02:20.367Z,2.98
2018-02-03T04:04:46.290Z,3.02
2018-02-03T04:07:15.368Z,3.09
2018-02-03T04:09:41.294Z,3.08
2018-02-03T04:12:09.219Z,3.18
2018-02-03T04:14:35.118Z,3.22
2018-02-03T04:17:05.051Z,3.26
2018-02-03T04:19:30.974Z,3.27
2018-02-03T04:21:58.198Z,3.27
2018-02-03T04:24:24.134Z,3.28
2018-02-03T04:26:50.018Z,3.25
2018-02-03T04:29:15.956Z,3.27
2018-02-03T04:31:41.939Z,3.24
2018-02-03T04:34:11.491Z,3.19
2018-02-03T04:36:37.387Z,3.10
2018-02-03T04:39:05.191Z,3.08
2018-02-03T04:41:31.090Z,3.08
2018-02-03T04:44:00.332Z,3.01
2018-02-03T04:46:26.247Z,2.84
2018-02-03T04:48:54.025Z,2.83
2018-02-03T04:51:19.980Z,2.78
2018-02-03T04:53:49.502Z,2.77
2018-02-03T04:56:15.402Z,2.75
2018-02-03T04:58:44.550Z,2.73
2018-02-03T05:01:10.475Z,2.74
2018-02-03T05:03:36.378Z,2.72
2018-02-03T05:06:02.282Z,2.74
2018-02-03T05:08:28.222Z,2.77
2018-02-03T05:10:55.293Z,2.80
2018-02-03T05:13:21.210Z,2.80
2018-02-03T05:15:50.542Z,2.81
2018-02-03T05:18:16.450Z,2.75
2018-02-03T05:20:45.951Z,2.71
2018-02-03T05:23:11.891Z,2.67
2018-02-03T05:25:39.760Z,2.59
2018-02-03T05:28:05.683Z,2.56
2018-02-03T05:30:35.032Z,2.58
2018-02-03T05:33:01.116Z,2.54
2018-02-03T05:35:30.323Z,2.54
2018-02-03T05:37:56.260Z,2.50
2018-02-03T05:40:22.217Z,2.47
2018-02-03T05:42:48.174Z,2.42
2018-02-03T05:45:19.109Z,2.39
2018-02-03T05:47:46.833Z,2.34
2018-02-03T05:50:12.824Z,2.37
2018-02-03T05:52:38.756Z,2.24
2018-02-03T05:55:04.721Z,2.18
2018-02-03T05:57:30.671Z,2.24
2018-02-03T05:59:56.609Z,2.23
2018-02-03T06:02:24.548Z,2.09
2018-02-03T06:04:50.531Z,1.98
2018-02-03T06:07:19.419Z,1.99
2018-02-03T06:09:45.357Z,2.00
2018-02-03T06:12:14.377Z,2.02
2018-02-03T06:17:32.156Z,1.96
2018-02-03T06:19:58.062Z,1.95
2018-02-03T06:22:23.993Z,1.92
2018-02-03T06:24:49.956Z,1.85
2018-02-03T06:27:15.889Z,1.85
2018-02-03T06:29:41.866Z,1.86
2018-02-03T06:32:07.837Z,1.89
2018-02-03T06:34:33.769Z,1.91
2018-02-03T06:36:59.708Z,1.93
2018-02-03T06:39:25.647Z,1.95
2018-02-03T06:41:51.584Z,1.98
2018-02-03T06:44:17.538Z,2.05
2018-02-03T06:46:43.490Z,2.08
2018-02-03T06:49:09.433Z,2.16
2018-02-03T06:51:35.365Z,2.20
2018-02-03T06:54:01.297Z,2.23
2018-02-03T06:56:27.274Z,2.31
2018-02-03T06:58:53.199Z,2.33
2018-02-03T07:01:19.104Z,2.36
2018-02-03T07:03:45.057Z,2.38
2018-02-03T07:06:11.013Z,2.38
2018-02-03T07:08:36.952Z,2.42
2018-02-03T07:11:02.941Z,2.44
2018-02-03T07:13:28.883Z,2.44
2018-02-03T07:15:55.109Z,2.48
2018-02-03T07:18:21.086Z,2.54
2018-02-03T07:20:51.016Z,2.58
2018-02-03T07:23:16.934Z,2.63
2018-02-03T07:25:45.478Z,2.68
2018-02-03T07:28:11.414Z,2.67
2018-02-03T07:30:37.425Z,2.63
2018-02-03T07:33:03.370Z,2.58
2018-02-03T07:35:29.314Z,2.59
2018-02-03T07:37:56.070Z,2.56
2018-02-03T07:40:21.991Z,2.54
2018-02-03T07:42:51.443Z,2.49
2018-02-03T07:45:17.392Z,2.52
2018-02-03T07:47:48.227Z,2.60
2018-02-03T07:50:14.372Z,2.60
2018-02-03T07:52:40.313Z,2.61
2018-02-03T07:55:06.401Z,2.68
2018-02-03T07:57:35.834Z,2.62
2018-02-03T08:00:01.776Z,2.63
2018-02-03T08:02:29.725Z,2.59
2018-02-03T08:04:55.717Z,2.63
2018-02-03T08:07:21.654Z,2.67
2018-02-03T08:09:47.636Z,2.67
2018-02-03T08:12:13.603Z,2.71
2018-02-03T08:14:41.319Z,2.82
2018-02-03T08:17:07.317Z,2.88
2018-02-03T08:19:36.236Z,2.77
2018-02-03T08:22:02.196Z,2.76
2018-02-03T08:24:31.191Z,2.79
2018-02-03T08:26:57.126Z,2.76
2018-02-03T08:29:26.156Z,2.77
2018-02-03T08:31:52.150Z,2.74
2018-02-03T08:34:21.105Z,2.77
2018-02-03T08:36:47.076Z,2.77
2018-02-03T08:39:16.503Z,2.81
2018-02-03T08:41:42.478Z,2.91
2018-02-03T08:44:08.411Z,3.04
2018-02-03T08:46:34.463Z,3.12
2018-02-03T08:49:00.418Z,3.06
2018-02-03T08:51:26.922Z,3.00
2018-02-03T08:53:52.866Z,2.89
2018-02-03T08:56:21.765Z,2.79
2018-02-03T08:58:47.697Z,2.80
2018-02-03T09:01:16.684Z,2.79
2018-02-03T09:03:42.800Z,2.72
2018-02-03T09:06:12.637Z,2.67
2018-02-03T09:08:38.575Z,2.75
2018-02-03T09:11:05.679Z,2.82
2018-02-03T09:13:31.616Z,2.83
2018-02-03T09:16:00.420Z,2.81
2018-02-03T09:18:26.362Z,2.75
2018-02-03T09:20:52.298Z,2.77
2018-02-03T09:23:18.246Z,2.85
2018-02-03T09:25:44.277Z,2.91
2018-02-03T09:28:13.406Z,2.92
2018-02-03T09:30:39.329Z,2.84
2018-02-03T09:33:08.469Z,2.90
2018-02-03T09:35:34.402Z,2.88
2018-02-03T09:38:01.384Z,2.87
2018-02-03T09:40:27.337Z,3.00
2018-02-03T09:42:56.334Z,3.01
2018-02-03T09:45:22.249Z,3.04
2018-02-03T09:47:51.216Z,3.08
2018-02-03T09:50:17.161Z,3.20
2018-02-03T09:52:46.257Z,3.23
2018-02-03T09:55:12.206Z,3.42
2018-02-03T09:57:38.145Z,3.55
2018-02-03T10:00:04.169Z,3.62
2018-02-03T10:02:30.123Z,3.59
2018-02-03T10:04:57.394Z,3.61
2018-02-03T10:07:23.346Z,3.70
2018-02-03T10:09:52.147Z,3.86
2018-02-03T10:12:18.113Z,3.92
2018-02-03T10:14:48.189Z,4.17
2018-02-03T10:17:14.088Z,4.03
2018-02-03T10:19:43.349Z,3.99
2018-02-03T10:22:09.314Z,3.89
2018-02-03T10:24:37.014Z,3.97
2018-02-03T10:27:03.841Z,4.03
2018-02-03T10:29:31.289Z,4.00
2018-02-03T10:31:57.228Z,4.08
2018-02-03T10:34:23.156Z,4.28
2018-02-03T10:36:49.076Z,4.33
2018-02-03T10:39:14.996Z,4.42
2018-02-03T10:41:42.930Z,4.58
2018-02-03T10:44:08.864Z,4.64
2018-02-03T10:46:38.013Z,4.55
2018-02-03T10:49:04.013Z,4.52
2018-02-03T10:51:33.305Z,4.50
2018-02-03T10:53:59.241Z,4.52
2018-02-03T10:56:28.221Z,4.60
2018-02-03T10:58:54.156Z,4.61
2018-02-03T11:01:23.382Z,4.65
2018-02-03T11:03:49.308Z,4.65
2018-02-03T11:06:16.235Z,4.70
2018-02-03T11:08:42.183Z,4.64
2018-02-03T11:11:08.140Z,4.50
2018-02-03T11:13:34.056Z,4.48
2018-02-03T11:16:00.531Z,4.61
2018-02-03T11:18:28.431Z,4.60
2018-02-03T11:20:54.363Z,4.48
2018-02-03T11:23:23.566Z,4.53
2018-02-03T11:25:49.496Z,4.64
2018-02-03T11:28:18.714Z,4.62
2018-02-03T11:30:44.665Z,4.76
2018-02-03T11:33:13.767Z,4.80
2018-02-03T11:35:39.687Z,4.84
2018-02-03T11:38:07.186Z,4.93
2018-02-03T11:40:33.106Z,4.95
2018-02-03T11:43:02.271Z,5.02
2018-02-03T11:45:28.186Z,5.05
2018-02-03T11:47:54.556Z,5.01
2018-02-03T11:50:20.553Z,5.09
2018-02-03T11:52:46.511Z,5.08
2018-02-03T11:55:13.565Z,5.06
2018-02-03T11:57:39.509Z,5.01
2018-02-03T12:00:08.940Z,5.03
2018-02-03T12:02:34.854Z,4.99
2018-02-03T12:05:03.868Z,4.98
2018-02-03T12:07:29.771Z,5.07
2018-02-03T12:09:58.926Z,5.14
2018-02-03T12:12:24.880Z,5.03
2018-02-03T12:14:52.064Z,4.95
2018-02-03T12:17:17.998Z,5.00
2018-02-03T12:22:14.794Z,5.01
2018-02-03T12:24:40.766Z,5.03
2018-02-03T12:27:06.683Z,5.02
2018-02-03T12:29:32.636Z,5.24
2018-02-03T12:31:58.572Z,5.50
2018-02-03T12:34:24.500Z,5.52
2018-02-03T12:36:53.307Z,5.28
2018-02-03T12:39:19.229Z,5.28
2018-02-03T12:41:48.089Z,5.23
2018-02-03T12:44:14.035Z,5.08
2018-02-03T12:46:43.205Z,5.00
2018-02-03T12:49:09.212Z,5.14
2018-02-03T12:51:38.320Z,5.20
2018-02-03T12:54:04.242Z,5.16
2018-02-03T12:56:33.285Z,5.07
2018-02-03T12:58:59.219Z,5.11
2018-02-03T13:01:25.133Z,5.17
2018-02-03T13:03:51.090Z,5.32
2018-02-03T13:06:16.999Z,5.38
2018-02-03T13:08:44.001Z,5.41
2018-02-03T13:11:09.952Z,5.42
2018-02-03T13:13:39.303Z,5.25
2018-02-03T13:16:05.226Z,5.17
2018-02-03T13:18:34.846Z,5.07
2018-02-03T13:21:00.820Z,5.00
2018-02-03T13:23:28.297Z,4.99
2018-02-03T13:25:54.215Z,5.03
2018-02-03T13:28:23.008Z,5.04
2018-02-03T13:30:48.920Z,5.00
2018-02-03T13:33:17.460Z,4.77
2018-02-03T13:35:43.396Z,4.46
2018-02-03T13:38:09.327Z,4.30
2018-02-03T13:40:35.239Z,4.26
2018-02-03T13:43:01.158Z,4.19
2018-02-03T13:45:30.334Z,4.38
2018-02-03T13:48:00.760Z,4.90
2018-02-03T13:50:26.671Z,5.90
2018-02-03T13:52:52.641Z,6.65
2018-02-03T13:55:18.551Z,7.10
2018-02-03T13:57:47.419Z,7.33
2018-02-03T14:00:13.377Z,7.07
2018-02-03T14:02:39.293Z,6.80
2018-02-03T14:05:09.053Z,6.56
2018-02-03T14:07:34.960Z,6.50
2018-02-03T14:10:04.168Z,6.44
2018-02-03T14:12:30.092Z,6.72
2018-02-03T14:14:56.029Z,6.99
2018-02-03T14:17:21.936Z,7.33
2018-02-03T14:19:47.863Z,7.90
2018-02-03T14:22:15.232Z,8.14
2018-02-03T14:24:47.380Z,8.59
2018-02-03T14:27:13.271Z,8.62
2018-02-03T14:29:39.192Z,8.90
2018-02-03T14:32:05.101Z,9.14
2018-02-03T14:34:31.032Z,9.13
2018-02-03T14:36:58.670Z,8.48
2018-02-03T14:39:24.584Z,7.59
2018-02-03T14:41:53.311Z,6.95
2018-02-03T14:44:19.229Z,6.34
2018-02-03T14:46:48.670Z,5.92
2018-02-03T14:49:14.635Z,5.66
2018-02-03T14:51:40.581Z,5.38
2018-02-03T14:54:06.509Z,5.49
2018-02-03T14:56:32.426Z,5.38
2018-02-03T14:59:00.275Z,5.34
2018-02-03T15:01:26.185Z,5.28
2018-02-03T15:03:55.146Z,5.22
2018-02-03T15:06:21.059Z,5.05
2018-02-03T15:08:50.521Z,5.00
2018-02-03T15:11:16.443Z,4.93
2018-02-03T15:13:45.634Z,4.96
2018-02-03T15:16:11.546Z,4.94
2018-02-03T15:18:38.891Z,4.88
2018-02-03T15:21:04.811Z,4.76
2018-02-03T15:23:33.718Z,4.69
2018-02-03T15:25:59.667Z,4.64
2018-02-03T15:28:25.607Z,4.52
2018-02-03T15:30:51.591Z,4.59
2018-02-03T15:33:18.188Z,4.69
2018-02-03T15:35:45.432Z,4.65
2018-02-03T15:38:11.359Z,4.51
2018-02-03T15:40:40.494Z,4.37
2018-02-03T15:43:06.455Z,4.36
2018-02-03T15:45:35.799Z,4.29
2018-02-03T15:48:06.080Z,4.19
2018-02-03T15:50:32.029Z,4.17
2018-02-03T15:52:57.950Z,4.11
2018-02-03T15:55:23.973Z,4.07
2018-02-03T15:57:49.902Z,4.07
2018-02-03T16:00:18.647Z,4.19
2018-02-03T16:02:45.317Z,4.26
2018-02-03T16:05:11.261Z,4.28
2018-02-03T16:07:37.206Z,4.26
2018-02-03T16:10:03.157Z,4.28
2018-02-03T16:12:30.392Z,4.11
2018-02-03T16:14:56.317Z,4.02
2018-02-03T16:17:25.178Z,3.96
2018-02-03T16:19:51.944Z,3.88
2018-02-03T16:22:19.819Z,3.91
2018-02-03T16:24:46.379Z,3.85
2018-02-03T16:27:15.470Z,3.79
2018-02-03T16:29:41.441Z,3.84
2018-02-03T16:32:11.799Z,3.84
2018-02-03T16:34:37.716Z,3.79
2018-02-03T16:37:04.759Z,3.80
2018-02-03T16:39:30.675Z,3.77
2018-02-03T16:41:56.639Z,3.70
2018-02-03T16:44:22.582Z,3.60
2018-02-03T16:46:48.557Z,3.59
2018-02-03T16:49:17.505Z,3.65
2018-02-03T16:51:43.434Z,3.68
2018-02-03T16:54:10.960Z,3.73
2018-02-03T16:56:40.969Z,3.79
2018-02-03T16:59:06.912Z,3.58
2018-02-03T17:01:32.849Z,3.57
2018-02-03T17:04:00.147Z,3.63
2018-02-03T17:06:26.128Z,3.54
2018-02-03T17:08:55.211Z,3.48
2018-02-03T17:11:21.148Z,3.38
2018-02-03T17:13:50.478Z,3.30
2018-02-03T17:16:16.444Z,3.36
2018-02-03T17:18:42.356Z,3.31
2018-02-03T17:21:08.309Z,3.28
2018-02-03T17:23:34.298Z,3.36
2018-02-03T17:26:01.775Z,3.39
2018-02-03T17:28:27.761Z,3.33
2018-02-03T17:30:57.136Z,3.26
2018-02-03T17:33:23.069Z,3.27
2018-02-03T17:35:50.669Z,3.23
2018-02-03T17:38:22.806Z,3.31
2018-02-03T17:40:48.783Z,3.44
2018-02-03T17:43:15.445Z,3.45
2018-02-03T17:45:47.516Z,3.45
2018-02-03T17:48:13.484Z,3.55
2018-02-03T17:50:39.468Z,3.67
2018-02-03T17:53:05.444Z,3.64
2018-02-03T17:55:37.436Z,3.70
2018-02-03T17:58:03.380Z,3.80
2018-02-03T18:00:30.299Z,3.84
2018-02-03T18:02:56.237Z,3.77
2018-02-03T18:05:22.196Z,3.69
2018-02-03T18:07:48.114Z,3.44
2018-02-03T18:10:14.057Z,3.38
2018-02-03T18:12:40.010Z,3.28
2018-02-03T18:15:06.026Z,3.30
2018-02-03T18:17:31.961Z,3.31
2018-02-03T18:19:57.864Z,3.25
2018-02-03T18:22:27.122Z,3.21
2018-02-03T18:24:53.034Z,3.22
2018-02-03T18:27:20.005Z,3.22
2018-02-03T18:29:45.931Z,3.22
2018-02-03T18:32:11.851Z,3.30
2018-02-03T18:34:38.676Z,3.32
2018-02-03T18:37:04.628Z,3.39
2018-02-03T18:39:31.512Z,3.44
2018-02-03T18:41:57.451Z,3.46
2018-02-03T18:44:27.459Z,3.44
2018-02-03T18:46:53.433Z,3.41
2018-02-03T18:49:21.349Z,3.41
2018-02-03T18:51:47.298Z,3.39
2018-02-03T18:54:16.881Z,3.43
2018-02-03T18:56:42.824Z,3.26
2018-02-03T18:59:12.201Z,3.24
2018-02-03T19:01:38.154Z,3.19
2018-02-03T19:04:05.672Z,3.24
2018-02-03T19:06:31.613Z,3.34
2018-02-03T19:08:57.558Z,3.43
2018-02-03T19:11:23.472Z,3.49
2018-02-03T19:13:49.425Z,3.54
2018-02-03T19:16:18.850Z,3.53
2018-02-03T19:18:44.840Z,3.49
2018-02-03T19:21:12.381Z,3.53
2018-02-03T19:23:38.301Z,3.51
2018-02-03T19:26:07.804Z,3.45
2018-02-03T19:28:33.730Z,3.39
2018-02-03T19:31:01.978Z,3.35
2018-02-03T19:33:27.923Z,3.36
2018-02-03T19:35:57.252Z,3.29
2018-02-03T19:38:23.172Z,3.25
2018-02-03T19:40:52.427Z,3.23
2018-02-03T19:43:18.352Z,3.18
2018-02-03T19:45:44.265Z,3.15
2018-02-03T19:48:10.218Z,3.14
2018-02-03T19:50:36.139Z,3.11
2018-02-03T19:53:02.175Z,3.09
2018-02-03T19:55:28.096Z,3.11
2018-02-03T19:57:57.351Z,3.06
2018-02-03T20:00:23.299Z,3.03
2018-02-03T20:02:52.441Z,3.04
2018-02-03T20:05:18.493Z,3.00
2018-02-03T20:07:47.459Z,3.02
2018-02-03T20:10:13.416Z,2.95
2018-02-03T20:12:41.264Z,2.95
2018-02-03T20:15:07.224Z,2.88
2018-02-03T20:17:36.002Z,2.75
2018-02-03T20:20:01.968Z,2.83
2018-02-03T20:22:27.920Z,2.86
2018-02-03T20:24:53.838Z,2.89
2018-02-03T20:27:19.792Z,2.96
2018-02-03T20:29:49.008Z,2.98
2018-02-03T20:32:14.985Z,3.00
2018-02-03T20:34:42.415Z,3.03
2018-02-03T20:37:08.352Z,3.04
2018-02-03T20:39:37.724Z,3.09
2018-02-03T20:42:03.691Z,3.00
2018-02-03T20:44:33.046Z,2.99
2018-02-03T20:46:58.991Z,2.95
2018-02-03T20:49:26.844Z,2.87
2018-02-03T20:51:52.809Z,2.82
2018-02-03T20:54:22.174Z,2.78
2018-02-03T20:56:48.108Z,2.77
2018-02-03T20:59:14.033Z,2.71
2018-02-03T21:01:39.946Z,2.71
2018-02-03T21:04:06.889Z,2.72
2018-02-03T21:06:32.821Z,2.74
2018-02-03T21:08:58.781Z,2.74
2018-02-03T21:11:28.320Z,2.68
2018-02-03T21:13:54.300Z,2.74
2018-02-03T21:16:23.784Z,2.70
2018-02-03T21:18:49.695Z,2.75
2018-02-03T21:21:17.523Z,2.80
2018-02-03T21:23:43.592Z,2.87
2018-02-03T21:26:12.925Z,2.88
2018-02-03T21:28:38.891Z,2.88
2018-02-03T21:31:08.300Z,2.90
2018-02-03T21:33:34.235Z,2.97
2018-02-03T21:36:00.205Z,2.96
2018-02-03T21:38:26.157Z,2.99
2018-02-03T21:40:52.096Z,3.01
2018-02-03T21:43:19.002Z,3.03
2018-02-03T21:45:44.973Z,3.03
2018-02-03T21:48:14.316Z,3.05
2018-02-03T21:50:40.259Z,2.95
2018-02-03T21:53:07.825Z,2.97
2018-02-03T21:55:33.750Z,3.01
2018-02-03T21:58:02.517Z,2.98
2018-02-03T22:00:29.372Z,3.05
2018-02-03T22:02:58.437Z,2.99
2018-02-03T22:05:24.368Z,3.03
2018-02-03T22:07:51.777Z,2.98
2018-02-03T22:10:17.720Z,2.99
2018-02-03T22:12:43.697Z,2.96
2018-02-03T22:15:09.674Z,3.02
2018-02-03T22:17:35.608Z,3.01
2018-02-03T22:20:04.990Z,3.05
2018-02-03T22:22:30.974Z,3.08
2018-02-03T22:24:58.304Z,3.08
2018-02-03T22:27:24.253Z,3.10
2018-02-03T22:29:53.016Z,2.98
2018-02-03T22:32:18.995Z,2.99
2018-02-03T22:34:48.872Z,3.06
2018-02-03T22:37:14.812Z,3.03
2018-02-03T22:39:43.798Z,3.05
2018-02-03T22:42:09.801Z,3.11
2018-02-03T22:44:39.060Z,3.18
2018-02-03T22:47:05.001Z,3.08
2018-02-03T22:49:30.934Z,3.01
2018-02-03T22:51:56.859Z,3.00
2018-02-03T22:54:22.820Z,3.08
2018-02-03T22:56:48.731Z,3.12
2018-02-03T22:59:14.648Z,3.13
2018-02-03T23:01:43.881Z,3.11
2018-02-03T23:04:09.790Z,3.00
2018-02-03T23:06:39.465Z,2.94
2018-02-03T23:09:05.421Z,2.73
2018-02-03T23:11:34.680Z,2.73
2018-02-03T23:14:00.625Z,2.69
2018-02-03T23:16:27.999Z,2.55
2018-02-03T23:18:53.944Z,2.51
2018-02-03T23:21:23.569Z,2.55
2018-02-03T23:23:49.484Z,2.61
2018-02-03T23:26:15.427Z,2.57
2018-02-03T23:28:41.455Z,2.69
2018-02-03T23:31:07.445Z,2.70
2018-02-03T23:33:34.517Z,2.66
2018-02-03T23:36:00.455Z,2.68
2018-02-03T23:38:30.213Z,2.58
2018-02-03T23:40:56.137Z,2.69
2018-02-03T23:43:23.635Z,2.71
2018-02-03T23:45:49.568Z,2.77
2018-02-03T23:48:18.305Z,2.81
2018-02-03T23:50:44.228Z,2.75
2018-02-03T23:53:13.051Z,2.76
2018-02-03T23:55:38.996Z,2.82
2018-02-03T23:58:08.234Z,2.82
